createdAt,value
2019-06-26T00:00:18.755Z,59.43
2019-06-26T00:02:48.870Z,59.10
2019-06-26T00:05:19.117Z,58.85
2019-06-26T00:07:49.153Z,59.06
2019-06-26T00:10:19.304Z,58.91
2019-06-26T00:12:50.982Z,58.78
2019-06-26T00:15:21.286Z,58.59
2019-06-26T00:17:51.421Z,58.35
2019-06-26T00:20:21.607Z,58.18
2019-06-26T00:22:51.662Z,58.06
2019-06-26T00:25:21.735Z,57.73
2019-06-26T00:27:51.804Z,58.05
2019-06-26T00:30:21.846Z,58.70
2019-06-26T00:32:51.908Z,58.99
2019-06-26T00:35:21.971Z,59.17
2019-06-26T00:37:52.022Z,59.29
2019-06-26T00:40:22.094Z,59.27
2019-06-26T00:42:52.148Z,59.19
2019-06-26T00:45:22.208Z,59.11
2019-06-26T00:47:52.265Z,59.24
2019-06-26T00:50:22.334Z,59.49
2019-06-26T00:52:52.376Z,59.55
2019-06-26T00:55:22.434Z,59.44
2019-06-26T00:57:52.481Z,59.37
2019-06-26T01:00:28.406Z,59.45
2019-06-26T01:02:58.449Z,59.80
2019-06-26T01:05:28.499Z,60.18
2019-06-26T01:07:58.573Z,60.31
2019-06-26T01:10:28.625Z,60.14
2019-06-26T01:12:58.818Z,60.16
2019-06-26T01:15:28.949Z,60.08
2019-06-26T01:17:59.006Z,60.01
2019-06-26T01:20:30.036Z,59.99
2019-06-26T01:23:00.306Z,59.92
2019-06-26T01:25:30.390Z,60.00
2019-06-26T01:28:00.431Z,60.03
2019-06-26T01:30:30.479Z,60.07
2019-06-26T01:33:00.548Z,60.09
2019-06-26T01:35:30.597Z,60.13
2019-06-26T01:38:00.655Z,60.02
2019-06-26T01:40:30.703Z,60.05
2019-06-26T01:43:00.761Z,59.95
2019-06-26T01:45:30.803Z,59.94
2019-06-26T01:48:01.842Z,59.86
2019-06-26T01:50:31.879Z,59.74
2019-06-26T01:53:02.021Z,59.52
2019-06-26T01:55:32.064Z,59.39
2019-06-26T01:58:02.111Z,59.19
2019-06-26T02:00:32.192Z,59.06
2019-06-26T02:03:02.470Z,58.95
2019-06-26T02:05:32.549Z,58.83
2019-06-26T02:08:02.584Z,58.72
2019-06-26T02:10:32.714Z,58.64
2019-06-26T02:13:02.777Z,58.84
2019-06-26T02:15:32.836Z,59.27
2019-06-26T02:18:02.915Z,59.75
2019-06-26T02:20:33.042Z,60.16
2019-06-26T02:23:03.127Z,60.11
2019-06-26T02:25:33.193Z,60.05
2019-06-26T02:28:03.338Z,59.91
2019-06-26T02:30:33.428Z,59.76
2019-06-26T02:33:03.461Z,59.61
2019-06-26T02:35:33.637Z,59.57
2019-06-26T02:38:03.651Z,59.57
2019-06-26T02:40:33.779Z,59.71
2019-06-26T02:43:07.013Z,60.04
2019-06-26T02:45:35.586Z,60.38
2019-06-26T02:48:05.643Z,60.73
2019-06-26T02:50:35.676Z,60.91
2019-06-26T02:53:05.727Z,61.16
2019-06-26T02:55:35.831Z,60.88
2019-06-26T02:58:05.897Z,60.64
2019-06-26T03:00:35.929Z,60.38
2019-06-26T03:03:05.976Z,60.18
2019-06-26T03:05:36.053Z,59.93
2019-06-26T03:08:06.083Z,59.77
2019-06-26T03:10:36.166Z,59.74
2019-06-26T03:13:06.353Z,59.66
2019-06-26T03:15:36.409Z,59.54
2019-06-26T03:18:06.491Z,59.51
2019-06-26T03:20:40.287Z,59.44
2019-06-26T03:23:10.401Z,59.42
2019-06-26T03:25:40.454Z,59.65
2019-06-26T03:28:10.515Z,59.73
2019-06-26T03:30:40.608Z,59.67
2019-06-26T03:33:10.651Z,59.63
2019-06-26T03:35:41.016Z,59.51
2019-06-26T03:38:11.171Z,59.58
2019-06-26T03:40:41.210Z,59.67
2019-06-26T03:43:11.664Z,60.10
2019-06-26T03:45:41.712Z,60.13
2019-06-26T03:48:11.771Z,59.97
2019-06-26T03:50:41.830Z,59.86
2019-06-26T03:53:11.888Z,59.72
2019-06-26T03:55:42.463Z,59.62
2019-06-26T03:58:13.484Z,59.46
2019-06-26T04:00:44.063Z,59.33
2019-06-26T04:03:14.121Z,59.21
2019-06-26T04:05:44.170Z,59.29
2019-06-26T04:08:14.231Z,59.40
2019-06-26T04:10:44.296Z,59.54
2019-06-26T04:13:14.357Z,59.60
2019-06-26T04:15:44.410Z,59.91
2019-06-26T04:18:14.467Z,60.18
2019-06-26T04:20:44.514Z,60.33
2019-06-26T04:23:14.714Z,60.70
2019-06-26T04:25:44.856Z,60.89
2019-06-26T04:28:14.901Z,60.91
2019-06-26T04:30:44.974Z,60.89
2019-06-26T04:33:15.173Z,61.24
2019-06-26T04:35:46.193Z,61.48
2019-06-26T04:38:17.292Z,61.73
2019-06-26T04:40:48.337Z,61.89
2019-06-26T04:43:18.382Z,62.03
2019-06-26T04:45:57.572Z,61.87
2019-06-26T04:48:20.198Z,61.75
2019-06-26T04:50:50.265Z,62.18
2019-06-26T04:53:20.315Z,62.31
2019-06-26T04:55:50.364Z,62.48
2019-06-26T04:58:20.435Z,62.70
2019-06-26T05:00:50.475Z,62.71
2019-06-26T05:03:20.521Z,62.87
2019-06-26T05:05:50.590Z,63.60
2019-06-26T05:08:20.635Z,63.93
2019-06-26T05:10:50.702Z,63.91
2019-06-26T05:13:20.734Z,63.73
2019-06-26T05:15:50.793Z,63.44
2019-06-26T05:18:20.839Z,63.26
2019-06-26T05:20:50.941Z,63.23
2019-06-26T05:23:20.996Z,63.19
2019-06-26T05:25:51.046Z,62.91
2019-06-26T05:28:21.121Z,63.04
2019-06-26T05:30:51.149Z,63.07
2019-06-26T05:33:21.223Z,62.92
2019-06-26T05:35:51.261Z,62.92
2019-06-26T05:38:21.337Z,62.83
2019-06-26T05:40:51.414Z,62.88
2019-06-26T05:43:21.419Z,62.84
2019-06-26T05:45:51.495Z,62.82
2019-06-26T05:48:21.536Z,62.89
2019-06-26T05:50:51.578Z,62.91
2019-06-26T05:53:21.645Z,62.95
2019-06-26T05:55:51.680Z,62.96
2019-06-26T05:58:21.752Z,62.64
2019-06-26T06:00:51.834Z,62.32
2019-06-26T06:03:21.997Z,62.04
2019-06-26T06:05:52.041Z,61.93
2019-06-26T06:08:23.065Z,61.61
2019-06-26T06:10:57.866Z,61.38
2019-06-26T06:13:25.812Z,60.93
2019-06-26T06:15:55.881Z,60.80
2019-06-26T06:18:25.965Z,60.71
2019-06-26T06:20:57.529Z,60.27
2019-06-26T06:23:27.565Z,60.36
2019-06-26T06:25:57.636Z,60.39
2019-06-26T06:28:27.678Z,60.37
2019-06-26T06:30:57.733Z,60.14
2019-06-26T06:33:30.474Z,60.40
2019-06-26T06:36:09.653Z,60.39
2019-06-26T06:38:43.137Z,60.84
2019-06-26T06:41:13.343Z,60.79
2019-06-26T06:43:43.377Z,60.82
2019-06-26T06:46:13.420Z,60.99
2019-06-26T06:48:43.595Z,60.59
2019-06-26T06:51:13.620Z,60.94
2019-06-26T06:53:43.689Z,60.78
2019-06-26T06:56:13.703Z,60.64
2019-06-26T06:58:43.767Z,60.54
2019-06-26T07:01:13.820Z,60.63
2019-06-26T07:03:43.879Z,60.66
2019-06-26T07:06:13.921Z,60.19
2019-06-26T07:08:43.983Z,59.87
2019-06-26T07:11:14.015Z,59.79
2019-06-26T07:13:44.079Z,59.74
2019-06-26T07:16:14.113Z,60.01
2019-06-26T07:18:44.185Z,59.86
2019-06-26T07:21:15.229Z,60.33
2019-06-26T07:23:45.294Z,60.62
2019-06-26T07:26:15.315Z,60.46
2019-06-26T07:28:45.347Z,60.00
2019-06-26T07:31:15.453Z,60.13
2019-06-26T07:33:45.517Z,59.56
2019-06-26T07:36:15.553Z,59.46
2019-06-26T07:38:45.602Z,59.49
2019-06-26T07:41:15.643Z,59.50
2019-06-26T07:43:45.709Z,59.52
2019-06-26T07:46:15.748Z,59.09
2019-06-26T07:48:45.825Z,58.94
2019-06-26T07:51:15.886Z,58.59
2019-06-26T07:53:45.906Z,58.94
2019-06-26T07:56:15.958Z,59.00
2019-06-26T07:58:46.027Z,59.42
2019-06-26T08:01:16.092Z,59.35
2019-06-26T08:03:46.132Z,59.03
2019-06-26T08:06:16.184Z,59.09
2019-06-26T08:08:46.237Z,59.19
2019-06-26T08:11:16.284Z,59.12
2019-06-26T08:13:46.342Z,59.13
2019-06-26T08:16:16.407Z,59.11
2019-06-26T08:18:46.452Z,59.05
2019-06-26T08:21:16.497Z,59.32
2019-06-26T08:23:46.551Z,59.27
2019-06-26T08:26:16.596Z,59.42
2019-06-26T08:28:46.640Z,59.53
2019-06-26T08:31:16.802Z,59.27
2019-06-26T08:33:47.797Z,58.80
2019-06-26T08:36:17.869Z,59.16
2019-06-26T08:38:47.904Z,59.61
2019-06-26T08:41:17.968Z,59.77
2019-06-26T08:43:48.972Z,59.49
2019-06-26T08:46:19.028Z,59.65
2019-06-26T08:48:51.861Z,59.80
2019-06-26T08:51:21.097Z,59.71
2019-06-26T08:53:51.481Z,59.25
2019-06-26T08:56:21.540Z,58.97
2019-06-26T08:58:51.573Z,59.19
2019-06-26T09:01:21.757Z,59.30
2019-06-26T09:03:51.808Z,59.40
2019-06-26T09:06:22.956Z,58.57
2019-06-26T09:08:52.996Z,58.40
2019-06-26T09:11:23.073Z,58.27
2019-06-26T09:13:53.119Z,58.29
2019-06-26T09:16:23.180Z,57.66
2019-06-26T09:18:53.233Z,58.01
2019-06-26T09:21:24.247Z,58.19
2019-06-26T09:23:54.275Z,58.58
2019-06-26T09:26:24.336Z,58.33
2019-06-26T09:28:54.381Z,57.52
2019-06-26T09:31:24.492Z,56.70
2019-06-26T09:33:54.532Z,56.67
2019-06-26T09:36:24.591Z,56.01
2019-06-26T09:38:57.852Z,56.12
2019-06-26T09:41:26.420Z,56.56
2019-06-26T09:43:56.453Z,57.11
2019-06-26T09:46:26.528Z,56.72
2019-06-26T09:48:56.558Z,56.90
2019-06-26T09:51:26.617Z,56.53
2019-06-26T09:53:56.677Z,56.13
2019-06-26T09:56:26.721Z,55.95
2019-06-26T09:58:56.796Z,55.83
2019-06-26T10:01:26.839Z,55.83
2019-06-26T10:03:56.881Z,55.87
2019-06-26T10:06:26.957Z,56.30
2019-06-26T10:08:57.008Z,56.31
2019-06-26T10:11:27.060Z,56.21
2019-06-26T10:13:57.091Z,55.91
2019-06-26T10:16:27.172Z,56.21
2019-06-26T10:19:09.715Z,56.74
2019-06-26T10:21:28.971Z,56.33
2019-06-26T10:23:59.003Z,56.23
2019-06-26T10:26:32.177Z,56.25
2019-06-26T10:29:00.787Z,55.72
2019-06-26T10:31:30.875Z,55.82
2019-06-26T10:34:00.901Z,56.13
2019-06-26T10:36:30.950Z,55.57
2019-06-26T10:39:01.044Z,55.44
2019-06-26T10:41:32.845Z,55.04
2019-06-26T10:44:02.943Z,54.45
2019-06-26T10:46:33.972Z,54.62
2019-06-26T10:49:04.042Z,53.99
2019-06-26T10:51:34.080Z,54.55
2019-06-26T10:54:04.149Z,54.77
2019-06-26T10:56:34.174Z,55.07
2019-06-26T10:59:04.221Z,55.18
2019-06-26T11:01:34.295Z,54.90
2019-06-26T11:04:04.325Z,55.04
2019-06-26T11:06:37.068Z,55.00
2019-06-26T11:09:07.713Z,55.99
2019-06-26T11:11:37.776Z,55.72
2019-06-26T11:14:07.821Z,54.27
2019-06-26T11:16:37.895Z,53.33
2019-06-26T11:19:07.919Z,54.25
2019-06-26T11:21:37.986Z,53.99
2019-06-26T11:24:08.009Z,53.76
2019-06-26T11:26:38.093Z,54.52
2019-06-26T11:29:08.124Z,53.02
2019-06-26T11:31:38.217Z,52.86
2019-06-26T11:34:08.256Z,52.02
2019-06-26T11:36:38.330Z,51.58
2019-06-26T11:39:08.845Z,51.91
2019-06-26T11:41:39.034Z,52.59
2019-06-26T11:44:09.044Z,52.66
2019-06-26T11:46:39.158Z,52.86
2019-06-26T11:49:09.234Z,52.86
2019-06-26T11:51:39.254Z,52.80
2019-06-26T11:54:09.486Z,53.23
2019-06-26T11:56:39.451Z,52.55
2019-06-26T11:59:09.529Z,52.37
2019-06-26T12:01:39.625Z,52.66
2019-06-26T12:04:09.807Z,53.31
2019-06-26T12:06:39.835Z,52.90
2019-06-26T12:09:09.939Z,52.28
2019-06-26T12:11:39.980Z,51.82
2019-06-26T12:14:10.061Z,51.20
2019-06-26T12:16:40.155Z,49.86
2019-06-26T12:19:10.359Z,50.82
2019-06-26T12:21:40.425Z,51.20
2019-06-26T12:24:10.449Z,51.69
2019-06-26T12:26:40.541Z,50.80
2019-06-26T12:29:10.576Z,50.41
2019-06-26T12:31:41.734Z,49.24
2019-06-26T12:34:12.761Z,49.92
2019-06-26T12:36:42.829Z,50.22
2019-06-26T12:39:12.840Z,49.40
2019-06-26T12:41:42.908Z,49.64
2019-06-26T12:44:12.954Z,50.33
2019-06-26T12:46:43.019Z,49.08
2019-06-26T12:49:13.054Z,50.14
2019-06-26T12:51:43.120Z,49.26
2019-06-26T12:54:13.156Z,49.51
2019-06-26T12:56:43.214Z,49.08
2019-06-26T12:59:13.245Z,49.65
2019-06-26T13:01:43.314Z,49.40
2019-06-26T13:04:13.360Z,49.69
2019-06-26T13:06:43.399Z,49.26
2019-06-26T13:09:13.435Z,49.52
2019-06-26T13:11:43.484Z,49.84
2019-06-26T13:14:13.514Z,50.14
2019-06-26T13:16:43.589Z,49.95
2019-06-26T13:19:13.628Z,49.85
2019-06-26T13:21:43.750Z,50.19
2019-06-26T13:24:13.827Z,50.26
2019-06-26T13:26:43.860Z,49.40
2019-06-26T13:29:13.904Z,49.83
2019-06-26T13:31:45.028Z,49.83
2019-06-26T13:34:15.084Z,49.80
2019-06-26T13:36:45.170Z,48.95
2019-06-26T13:39:15.213Z,48.92
2019-06-26T13:41:45.261Z,48.24
2019-06-26T13:44:15.328Z,49.16
2019-06-26T13:46:45.385Z,49.97
2019-06-26T13:49:16.628Z,49.01
2019-06-26T13:51:46.732Z,48.93
2019-06-26T13:54:16.816Z,49.90
2019-06-26T13:56:46.840Z,50.43
2019-06-26T13:59:16.884Z,50.79
2019-06-26T14:01:46.937Z,50.18
2019-06-26T14:04:16.995Z,49.27
2019-06-26T14:06:47.037Z,49.64
2019-06-26T14:09:17.066Z,48.53
2019-06-26T14:11:47.137Z,48.45
2019-06-26T14:14:17.164Z,48.20
2019-06-26T14:16:47.222Z,48.13
2019-06-26T14:19:17.267Z,49.20
2019-06-26T14:21:47.303Z,49.14
2019-06-26T14:24:18.425Z,49.17
2019-06-26T14:26:48.456Z,48.41
2019-06-26T14:29:21.381Z,47.73
2019-06-26T14:31:52.556Z,48.05
2019-06-26T14:34:22.622Z,47.63
2019-06-26T14:36:52.653Z,47.77
2019-06-26T14:39:22.748Z,48.47
2019-06-26T14:41:52.808Z,48.41
2019-06-26T14:44:22.860Z,48.08
2019-06-26T14:46:52.873Z,47.76
2019-06-26T14:49:22.947Z,47.07
2019-06-26T14:51:53.014Z,47.24
2019-06-26T14:54:23.071Z,47.90
2019-06-26T14:56:53.131Z,48.33
2019-06-26T14:59:23.171Z,48.06
2019-06-26T15:01:53.240Z,47.86
2019-06-26T15:04:23.296Z,47.80
2019-06-26T15:06:53.339Z,48.23
2019-06-26T15:09:23.408Z,47.35
2019-06-26T15:11:53.453Z,47.92
2019-06-26T15:14:23.495Z,47.01
2019-06-26T15:16:53.552Z,47.41
2019-06-26T15:19:23.593Z,47.15
2019-06-26T15:21:58.207Z,47.23
2019-06-26T15:24:25.417Z,47.71
2019-06-26T15:26:55.484Z,46.95
2019-06-26T15:29:25.549Z,47.78
2019-06-26T15:31:55.631Z,47.94
2019-06-26T15:34:26.351Z,47.99
2019-06-26T15:36:56.421Z,47.96
2019-06-26T15:39:26.456Z,48.45
2019-06-26T15:41:56.500Z,48.45
2019-06-26T15:44:26.602Z,48.78
2019-06-26T15:46:56.610Z,48.80
2019-06-26T15:49:26.688Z,48.17
2019-06-26T15:51:56.728Z,48.48
2019-06-26T15:54:26.793Z,48.67
2019-06-26T15:56:56.833Z,48.47
2019-06-26T15:59:26.888Z,48.61
2019-06-26T16:01:56.955Z,47.50
2019-06-26T16:04:26.998Z,48.48
2019-06-26T16:06:57.081Z,48.58
2019-06-26T16:09:27.119Z,48.35
2019-06-26T16:11:58.917Z,48.67
2019-06-26T16:14:28.915Z,47.72
2019-06-26T16:17:01.461Z,48.10
2019-06-26T16:19:31.506Z,48.30
2019-06-26T16:22:01.566Z,47.94
2019-06-26T16:24:31.659Z,47.93
2019-06-26T16:27:01.664Z,47.85
2019-06-26T16:29:31.700Z,48.14
2019-06-26T16:32:01.828Z,48.37
2019-06-26T16:34:31.866Z,48.87
2019-06-26T16:37:01.929Z,48.71
2019-06-26T16:39:31.957Z,49.10
2019-06-26T16:42:02.014Z,48.99
2019-06-26T16:44:32.036Z,49.35
2019-06-26T16:47:02.093Z,49.22
2019-06-26T16:49:32.153Z,48.77
2019-06-26T16:52:02.182Z,49.45
2019-06-26T16:54:32.234Z,49.70
2019-06-26T16:57:02.382Z,49.63
2019-06-26T16:59:32.400Z,49.99
2019-06-26T17:02:02.462Z,50.24
2019-06-26T17:04:32.485Z,50.32
2019-06-26T17:07:03.600Z,50.77
2019-06-26T17:09:33.641Z,50.26
2019-06-26T17:12:03.725Z,50.47
2019-06-26T17:14:33.750Z,50.39
2019-06-26T17:17:03.813Z,49.61
2019-06-26T17:19:33.859Z,49.76
2019-06-26T17:22:05.061Z,50.02
2019-06-26T17:24:36.167Z,50.36
2019-06-26T17:27:06.232Z,50.12
2019-06-26T17:29:36.276Z,50.12
2019-06-26T17:32:07.315Z,49.82
2019-06-26T17:34:37.365Z,50.37
2019-06-26T17:37:07.492Z,50.28
2019-06-26T17:39:37.496Z,50.33
2019-06-26T17:42:08.517Z,50.38
2019-06-26T17:44:38.551Z,50.52
2019-06-26T17:47:08.605Z,50.39
2019-06-26T17:49:38.659Z,50.84
2019-06-26T17:52:08.702Z,51.33
2019-06-26T17:54:38.860Z,51.07
2019-06-26T17:57:08.905Z,51.45
2019-06-26T17:59:38.955Z,51.54
2019-06-26T18:02:09.030Z,51.57
2019-06-26T18:04:39.064Z,51.66
2019-06-26T18:07:09.127Z,51.72
2019-06-26T18:09:39.197Z,51.84
2019-06-26T18:12:09.237Z,51.60
2019-06-26T18:14:42.948Z,51.80
2019-06-26T18:17:21.581Z,52.17
2019-06-26T18:19:43.106Z,52.50
2019-06-26T18:22:13.142Z,52.60
2019-06-26T18:24:43.206Z,52.41
2019-06-26T18:27:13.260Z,52.66
2019-06-26T18:29:43.330Z,52.78
2019-06-26T18:32:13.574Z,52.94
2019-06-26T18:34:46.711Z,52.83
2019-06-26T18:37:15.814Z,53.02
2019-06-26T18:39:45.877Z,53.28
2019-06-26T18:42:15.925Z,53.26
2019-06-26T18:44:45.979Z,53.24
2019-06-26T18:47:16.283Z,53.20
2019-06-26T18:49:46.385Z,53.19
2019-06-26T18:52:16.437Z,53.42
2019-06-26T18:54:46.517Z,53.58
2019-06-26T18:57:16.552Z,53.78
2019-06-26T18:59:46.708Z,53.64
2019-06-26T19:02:16.790Z,53.88
2019-06-26T19:04:46.845Z,53.96
2019-06-26T19:07:17.865Z,53.94
2019-06-26T19:09:47.892Z,53.95
2019-06-26T19:12:18.014Z,53.86
2019-06-26T19:14:48.119Z,53.76
2019-06-26T19:17:19.134Z,53.69
2019-06-26T19:19:49.267Z,53.49
2019-06-26T19:22:19.328Z,53.64
2019-06-26T19:24:49.368Z,53.98
2019-06-26T19:27:19.925Z,53.94
2019-06-26T19:29:50.917Z,54.25
2019-06-26T19:32:21.097Z,54.23
2019-06-26T19:34:51.164Z,54.29
2019-06-26T19:37:21.212Z,54.33
2019-06-26T19:39:51.279Z,54.48
2019-06-26T19:42:21.320Z,54.39
2019-06-26T19:44:51.409Z,54.29
2019-06-26T19:47:21.514Z,54.44
2019-06-26T19:49:51.593Z,54.31
2019-06-26T19:52:21.665Z,54.21
2019-06-26T19:54:51.707Z,54.24
2019-06-26T19:57:21.768Z,54.11
2019-06-26T19:59:51.998Z,54.29
2019-06-26T20:02:22.046Z,54.32
2019-06-26T20:04:52.145Z,54.30
2019-06-26T20:07:22.154Z,54.33
2019-06-26T20:09:52.246Z,54.26
2019-06-26T20:12:22.322Z,54.31
2019-06-26T20:14:52.416Z,54.25
2019-06-26T20:17:22.501Z,54.45
2019-06-26T20:19:52.569Z,54.47
2019-06-26T20:22:22.617Z,54.41
2019-06-26T20:24:52.684Z,54.52
2019-06-26T20:27:22.741Z,54.57
2019-06-26T20:29:52.789Z,54.77
2019-06-26T20:32:23.867Z,54.98
2019-06-26T20:34:54.178Z,55.32
2019-06-26T20:37:24.248Z,55.62
2019-06-26T20:39:54.315Z,55.73
2019-06-26T20:42:24.619Z,55.82
2019-06-26T20:44:54.684Z,55.89
2019-06-26T20:47:24.744Z,56.09
2019-06-26T20:49:54.794Z,56.21
2019-06-26T20:52:24.848Z,56.13
2019-06-26T20:55:01.274Z,56.20
2019-06-26T20:57:26.698Z,56.29
2019-06-26T20:59:56.726Z,56.39
2019-06-26T21:02:26.797Z,56.42
2019-06-26T21:04:56.864Z,56.54
2019-06-26T21:07:26.970Z,56.45
2019-06-26T21:09:57.045Z,56.48
2019-06-26T21:12:27.085Z,56.40
2019-06-26T21:14:57.120Z,56.46
2019-06-26T21:17:27.197Z,56.49
2019-06-26T21:19:57.229Z,56.52
2019-06-26T21:24:56.089Z,56.47
2019-06-26T21:27:26.145Z,56.38
2019-06-26T21:29:56.199Z,56.42
2019-06-26T21:32:26.288Z,56.35
2019-06-26T21:34:56.334Z,56.24
2019-06-26T21:37:26.384Z,56.10
2019-06-26T21:39:56.449Z,56.19
2019-06-26T21:42:26.502Z,56.22
2019-06-26T21:44:56.549Z,56.35
2019-06-26T21:47:26.605Z,56.43
2019-06-26T21:49:56.639Z,56.53
2019-06-26T21:52:26.681Z,56.63
2019-06-26T21:54:56.769Z,56.73
2019-06-26T21:57:44.563Z,56.83
2019-06-26T22:00:34.606Z,56.90
2019-06-26T22:03:22.153Z,57.17
2019-06-26T22:05:53.931Z,57.55
2019-06-26T22:08:25.576Z,57.65
2019-06-26T22:10:57.249Z,57.63
2019-06-26T22:13:27.360Z,57.68
2019-06-26T22:15:57.478Z,57.57
2019-06-26T22:18:27.611Z,57.46
2019-06-26T22:20:57.726Z,57.33
2019-06-26T22:23:27.823Z,57.30
2019-06-26T22:25:57.870Z,57.41
2019-06-26T22:28:27.905Z,57.43
2019-06-26T22:30:57.975Z,57.50
2019-06-26T22:33:28.057Z,57.53
2019-06-26T22:35:58.110Z,57.40
2019-06-26T22:38:28.165Z,57.43
2019-06-26T22:40:58.212Z,57.39
2019-06-26T22:43:28.253Z,57.30
2019-06-26T22:45:58.315Z,57.25
2019-06-26T22:48:28.345Z,57.33
2019-06-26T22:50:58.427Z,57.36
2019-06-26T22:53:28.453Z,57.40
2019-06-26T22:56:07.450Z,57.37
2019-06-26T22:58:30.291Z,57.38
2019-06-26T23:01:00.319Z,57.23
2019-06-26T23:03:30.371Z,57.16
2019-06-26T23:06:00.437Z,57.06
2019-06-26T23:08:30.479Z,56.98
2019-06-26T23:11:00.515Z,56.93
2019-06-26T23:13:30.582Z,56.91
2019-06-26T23:16:00.609Z,56.93
2019-06-26T23:18:30.688Z,57.03
2019-06-26T23:21:00.718Z,57.08
2019-06-26T23:23:30.780Z,57.02
2019-06-26T23:26:00.791Z,56.87
2019-06-26T23:28:30.851Z,56.71
2019-06-26T23:31:00.914Z,56.62
2019-06-26T23:33:31.102Z,56.58
2019-06-26T23:36:01.152Z,56.44
2019-06-26T23:38:31.224Z,56.34
2019-06-26T23:41:01.251Z,56.19
2019-06-26T23:43:31.296Z,56.12
2019-06-26T23:46:01.345Z,56.18
2019-06-26T23:48:31.376Z,56.09
2019-06-26T23:51:01.559Z,56.00
2019-06-26T23:53:31.676Z,55.89
2019-06-26T23:56:02.799Z,55.97
2019-06-26T23:58:32.865Z,55.87
